Latest Weather Observations for Wudinna Airport

IDS60801

Issued at 11:31 pm CDT Monday 20 February 2017 (issued every 30 minutes, with the page automatically refreshed every 10 minutes)

About weather observations | Map of weather stations | Latest weather observations for SA | Other Formats
Station Details ID: 018083 Name: WUDINNA AERO Lat: -33.04 Lon: 135.45 Height: 86.4 m
Data from the previous 72 hours. | See also: Recent months at Wudinna Airport
Date/Time
CDT
Temp
°C
App
Temp
°C
Dew
Point
°C
Rel
Hum
%
Delta-T
°C
Wind Press
QNH
hPa
Press
MSL
hPa
Rain since
9am
mm
Dir  Spd
km/h
Gust
km/h
Spd
kts
Gust
kts
20/11:30pm 17.3 14.8 9.7 61 4.0 ESE 13 19 7 10 1017.7 1017.4 0.0
20/11:00pm 17.8 15.0 9.9 60 4.2 ESE 15 24 8 13 1017.8 1017.5 0.0
20/10:30pm 18.2 15.3 9.8 58 4.5 SE 15 20 8 11 1017.6 1017.3 0.0
20/10:00pm 17.7 15.0 9.1 57 4.5 S 13 17 7 9 1017.6 1017.3 0.0
20/09:30pm 18.4 14.9 8.9 54 5.0 SSW 17 22 9 12 1017.4 1017.0 0.0
20/09:00pm 19.3 15.5 8.9 51 5.5 SSW 19 24 10 13 1017.0 1016.6 0.0
20/08:30pm 20.2 16.1 8.5 47 6.1 SSW 20 26 11 14 1016.7 1016.3 0.0
20/08:00pm 21.4 16.3 7.6 41 7.2 S 24 33 13 18 1016.2 1015.8 0.0
20/07:30pm 23.2 17.5 6.9 35 8.4 S 26 35 14 19 1015.9 1015.5 0.0
20/07:27pm 23.5 18.2 6.7 34 8.7 S 24 33 13 18 1015.8 1015.4 0.0
20/07:00pm 25.6 23.0 6.3 29 10.0 SW 9 15 5 8 1015.4 1015.0 0.0
20/06:30pm 25.6 23.2 5.2 27 10.4 SSW 7 11 4 6 1015.4 1015.0 0.0
20/06:00pm 25.6 22.8 5.2 27 10.4 S 9 17 5 9 1015.5 1015.1 0.0
20/05:30pm 25.7 22.1 4.8 26 10.6 SW 13 17 7 9 1015.4 1015.0 0.0
20/05:00pm 25.7 22.5 5.3 27 10.4 SW 11 20 6 11 1015.4 1015.0 0.0
20/04:30pm 25.1 22.6 4.8 27 10.2 W 7 17 4 9 1015.6 1015.2 0.0
20/04:00pm 25.2 22.1 5.4 28 10.1 S 11 19 6 10 1016.0 1015.6 0.0
20/03:30pm 24.5 21.5 5.8 30 9.6 SE 11 17 6 9 1016.3 1015.9 0.0
20/03:00pm 23.7 21.0 5.6 31 9.2 SSE 9 22 5 12 1016.7 1016.3 0.0
20/02:30pm 23.1 20.1 6.0 33 8.7 SW 11 20 6 11 1017.1 1016.7 0.0
20/02:00pm 23.7 21.6 6.5 33 8.9 SE 7 11 4 6 1017.3 1016.9 0.0
20/01:30pm 22.0 18.6 5.8 35 8.1 SSW 13 19 7 10 1017.6 1017.3 0.0
20/01:00pm 21.8 18.5 6.5 37 7.8 SSW 13 22 7 12 1018.0 1017.7 0.0
20/12:30pm 20.8 18.0 7.1 41 7.0 SSW 11 17 6 9 1018.4 1018.1 0.0
20/12:00pm 20.2 17.5 7.2 43 6.6 ENE 11 17 6 9 1018.7 1018.4 0.0
20/11:30am 19.7 17.3 7.1 44 6.4 NNW 9 15 5 8 1019.2 1018.8 0.0
20/11:00am 18.6 16.5 6.8 46 5.9 WSW 7 15 4 8 1019.5 1019.1 0.0
20/10:30am 18.4 16.3 8.1 51 5.3 S 9 15 5 8 1019.8 1019.4 0.0
20/10:00am 17.2 14.5 7.3 52 5.0 S 11 17 6 9 1020.0 1019.6 0.0
20/09:30am 16.5 14.5 8.5 59 4.1 S 9 17 5 9 1020.1 1019.7 0.0
20/09:00am 15.6 14.7 9.3 66 3.3 W 4 7 2 4 1020.0 1019.6 0.0
20/08:30am 13.0 13.1 10.2 83 1.4 CALM 0 0 0 0 1019.9 1019.5 0.0
20/08:00am 9.2 7.9 7.8 91 0.7 NE 4 6 2 3 1019.7 1019.3 0.0
20/07:30am 6.8 5.8 5.4 91 0.6 CALM 0 0 0 0 1019.4 1019.0 0.0
20/07:00am 6.5 4.1 5.1 91 0.6 NNE 7 9 4 5 1018.7 1018.4 0.0
20/06:30am 6.8 4.4 5.4 91 0.6 NNE 7 7 4 4 1018.6 1018.3 0.0
20/06:00am 6.8 4.6 5.3 90 0.7 NNE 6 7 3 4 1018.4 1018.1 0.0
20/05:30am 7.0 5.9 5.3 89 0.8 CALM 0 2 0 1 1018.2 1017.9 0.0
20/05:00am 6.9 4.7 5.1 88 0.8 NNE 6 7 3 4 1018.2 1017.9 0.0
20/04:30am 7.6 6.6 5.6 87 0.9 CALM 0 0 0 0 1018.1 1017.8 0.0
20/04:00am 7.8 6.8 5.4 85 1.1 CALM 0 0 0 0 1018.2 1017.9 0.0
20/03:30am 9.1 8.3 6.4 83 1.3 CALM 0 0 0 0 1018.1 1017.8 0.0
20/03:00am 10.7 8.9 8.1 84 1.3 SW 7 9 4 5 1018.1 1017.8 0.0
20/02:30am 12.1 10.5 8.8 80 1.6 SE 7 11 4 6 1018.1 1017.8 0.0
20/02:00am 12.9 11.5 9.0 77 2.0 SSW 6 7 3 4 1018.5 1018.2 0.0
20/01:30am 12.5 10.6 9.0 79 1.8 SW 9 11 5 6 1018.8 1018.5 0.0
20/01:00am 13.0 11.4 8.9 76 2.1 SW 7 9 4 5 1019.2 1018.8 0.0
20/12:30am 13.4 11.2 9.5 77 2.0 WSW 11 13 6 7 1019.4 1019.0 0.0
20/12:00am 13.7 11.1 9.2 74 2.3 SSW 13 15 7 8 1019.3 1018.9 0.0
 
Date/Time
CDT
Temp
°C
App
Temp
°C
Dew
Point
°C
Rel
Hum
%
Delta-T
°C
Wind Press
QNH
hPa
Press
MSL
hPa
Rain since
9am
mm
Dir  Spd
km/h
Gust
km/h
Spd
kts
Gust
kts
19/11:30pm 14.2 11.6 9.2 72 2.6 SSW 13 15 7 8 1019.5 1019.1 0.0
19/11:00pm 14.5 11.8 8.9 69 2.9 S 13 17 7 9 1019.6 1019.2 0.0
19/10:30pm 15.4 11.8 8.2 62 3.6 SSW 17 22 9 12 1019.6 1019.2 0.0
19/10:00pm 16.4 12.2 8.1 58 4.2 SSW 20 24 11 13 1019.6 1019.2 0.0
19/09:30pm 16.7 12.7 8.4 58 4.2 SSW 19 26 10 14 1019.4 1019.0 0.0
19/09:00pm 16.5 12.4 8.7 60 4.0 SSW 20 30 11 16 1019.0 1018.7 0.0
19/08:30pm 17.4 12.3 7.5 52 5.0 SW 24 32 13 17 1019.0 1018.7 0.0
19/08:00pm 17.8 12.3 7.5 51 5.2 SW 26 33 14 18 1018.8 1018.5 0.0
19/07:30pm 18.4 12.3 6.6 46 5.9 SSW 28 37 15 20 1018.4 1018.1 0.0
19/07:00pm 18.9 13.2 6.7 45 6.1 SSW 26 33 14 18 1018.3 1018.0 0.0
19/06:30pm 19.5 13.8 6.6 43 6.5 SSW 26 37 14 20 1018.2 1017.9 0.0
19/06:00pm 19.8 14.5 6.9 43 6.5 SSW 24 33 13 18 1018.0 1017.7 0.0
19/05:30pm 20.6 15.2 6.2 39 7.2 SSW 24 33 13 18 1018.1 1017.8 0.0
19/05:00pm 21.1 15.7 6.2 38 7.5 SW 24 32 13 17 1018.0 1017.7 0.0
19/04:30pm 21.3 16.5 7.5 41 7.1 SW 22 33 12 18 1018.0 1017.7 0.0
19/04:00pm 21.5 15.9 7.0 39 7.5 SW 26 37 14 20 1018.2 1017.9 0.0
19/03:30pm 21.0 15.3 6.9 40 7.2 SW 26 39 14 21 1018.4 1018.1 0.0
19/03:00pm 20.8 15.5 4.8 35 7.8 SSW 22 35 12 19 1018.7 1018.4 0.0
19/02:30pm 21.5 17.0 6.2 37 7.7 SW 19 35 10 19 1019.2 1018.8 0.0
19/02:00pm 20.6 15.9 6.2 39 7.2 SW 20 28 11 15 1019.4 1019.0 0.0
19/01:30pm 19.9 15.5 6.6 42 6.7 S 19 28 10 15 1019.6 1019.2 0.0
19/01:00pm 19.5 14.9 6.3 42 6.6 SSW 20 28 11 15 1019.8 1019.4 0.0
19/12:30pm 19.2 14.6 6.3 43 6.4 SW 20 32 11 17 1020.1 1019.7 0.0
19/12:00pm 18.9 14.4 6.1 43 6.3 SSW 19 32 10 17 1020.5 1020.1 0.0
19/11:30am 18.2 13.6 6.7 47 5.7 SSW 20 28 11 15 1020.8 1020.4 0.0
19/11:00am 17.5 13.0 7.0 50 5.3 S 20 32 11 17 1021.0 1020.6 0.0
19/10:30am 17.2 12.7 7.0 51 5.1 SSW 20 28 11 15 1021.0 1020.6 0.0
19/10:00am 17.1 12.9 7.5 53 4.8 SSW 19 28 10 15 1020.9 1020.5 0.0
19/09:30am 16.4 13.3 7.3 55 4.5 S 13 19 7 10 1020.6 1020.2 0.0
19/09:00am 15.7 12.8 8.0 60 3.9 SW 13 17 7 9 1020.4 1020.0 0.0
19/08:30am 14.7 12.0 9.1 69 2.9 WSW 13 15 7 8 1020.2 1019.8 0.0
19/08:00am 13.9 12.0 8.9 72 2.5 WSW 9 11 5 6 1020.2 1019.8 0.0
19/07:30am 13.3 11.5 9.4 77 2.0 W 9 11 5 6 1020.1 1019.7 0.0
19/07:00am 13.1 11.7 9.7 80 1.7 WNW 7 9 4 5 1019.9 1019.5 0.0
19/06:30am 12.9 11.7 9.4 79 1.8 WSW 6 7 3 4 1019.6 1019.2 0.0
19/06:00am 12.6 11.2 9.4 81 1.6 WSW 7 9 4 5 1019.5 1019.1 0.0
19/05:30am 12.3 11.1 9.5 83 1.4 WSW 6 7 3 4 1019.5 1019.1 0.0
19/05:00am 12.0 10.6 9.7 86 1.2 W 7 9 4 5 1019.5 1019.1 0.0
19/04:30am 10.5 8.7 9.3 92 0.6 WNW 9 9 5 5 1019.5 1019.1 0.0
19/04:00am 8.4 7.3 6.9 90 0.7 W 2 6 1 3 1019.6 1019.2 0.0
19/03:30am 7.0 5.5 5.2 88 0.8 W 2 7 1 4 1019.8 1019.4 0.0
19/03:00am 7.3 6.3 5.4 88 0.8 CALM 0 0 0 0 1020.0 1019.6 0.0
19/02:30am 7.7 6.7 5.5 86 1.0 CALM 0 0 0 0 1020.2 1019.8 0.0
19/02:00am 7.8 6.8 5.4 85 1.1 CALM 0 0 0 0 1020.5 1020.1 0.0
19/01:30am 9.2 7.7 7.0 86 1.0 SW 4 9 2 5 1020.7 1020.3 0.0
19/01:00am 10.0 8.2 7.9 87 1.0 WSW 7 11 4 6 1020.9 1020.5 0.0
19/12:30am 10.0 7.8 7.9 87 1.0 WSW 9 13 5 7 1020.7 1020.3 0.0
19/12:00am 10.6 9.1 8.5 87 1.0 W 6 9 3 5 1020.6 1020.2 0.0
 
Date/Time
CDT
Temp
°C
App
Temp
°C
Dew
Point
°C
Rel
Hum
%
Delta-T
°C
Wind Press
QNH
hPa
Press
MSL
hPa
Rain since
9am
mm
Dir  Spd
km/h
Gust
km/h
Spd
kts
Gust
kts
18/11:30pm 11.4 9.4 8.6 83 1.4 SW 9 9 5 5 1020.7 1020.3 0.0
18/11:00pm 12.5 10.2 9.0 79 1.8 SSW 11 15 6 8 1020.7 1020.3 0.0
18/10:30pm 13.4 10.4 9.1 75 2.2 SSW 15 19 8 10 1020.8 1020.4 0.0
18/10:00pm 13.4 10.3 10.2 81 1.7 SW 17 26 9 14 1020.7 1020.3 0.0
18/09:30pm 15.4 10.4 7.9 61 3.8 SSW 24 43 13 23 1020.4 1020.0 0.0
18/09:00pm 16.2 10.5 4.9 47 5.4 SW 24 32 13 17 1019.9 1019.5 0.0
18/08:30pm 16.7 11.0 5.0 46 5.6 SSW 24 32 13 17 1019.5 1019.1 0.0
18/08:00pm 17.0 10.7 5.9 48 5.4 S 28 35 15 19 1019.2 1018.8 0.0
18/07:30pm 17.3 10.0 4.3 42 6.1 S 32 41 17 22 1018.8 1018.5 0.0
18/07:00pm 18.1 10.9 5.0 42 6.3 S 32 43 17 23 1018.3 1018.0 0.0
18/06:30pm 18.7 11.0 5.5 42 6.5 S 35 50 19 27 1018.3 1018.0 0.0
18/06:00pm 18.8 12.2 6.0 43 6.3 S 30 41 16 22 1018.3 1018.0 0.0
18/05:30pm 19.6 12.0 6.0 41 6.8 SSW 35 46 19 25 1018.2 1017.9 0.0
18/05:01pm 20.9 13.8 5.3 36 7.7 S 32 50 17 27 1018.0 1017.7 0.0
18/05:00pm 21.7 14.6 5.6 35 8.1 S 32 44 17 24 1018.0 1017.7 0.0
18/04:30pm 20.3 13.5 5.1 37 7.5 S 30 41 16 22 1018.2 1017.9 0.0
18/04:00pm 20.1 13.0 6.5 41 6.9 S 33 48 18 26 1018.4 1018.1 0.0
18/03:40pm 20.4 13.3 6.4 40 7.1 S 33 52 18 28 1018.4 1018.1 0.0
18/03:30pm 20.9 13.3 5.7 37 7.6 S 35 46 19 25 1018.4 1018.1 0.0
18/03:00pm 21.0 13.7 4.6 34 8.0 S 32 52 17 28 1018.7 1018.4 0.0
18/02:41pm 20.7 14.7 7.0 41 7.0 S 28 46 15 25 1019.0 1018.7 0.0
18/02:30pm 20.0 13.8 7.7 45 6.3 SSW 30 43 16 23 1019.2 1018.8 0.0
18/02:00pm 22.6 16.3 7.6 38 7.8 SW 30 43 16 23 1018.9 1018.6 0.0
18/01:30pm 21.6 14.4 7.8 41 7.2 SSW 35 50 19 27 1018.9 1018.6 0.0
18/01:00pm 22.2 15.1 5.6 34 8.3 SW 32 44 17 24 1018.9 1018.6 0.0
18/12:30pm 21.3 15.7 3.5 31 8.5 SW 22 33 12 18 1018.8 1018.5 0.0
18/12:00pm 20.6 14.8 4.2 34 7.9 SW 24 37 13 20 1019.2 1018.8 0.0
18/11:30am 20.5 14.3 6.1 39 7.2 SW 28 39 15 21 1019.5 1019.1 0.0
18/11:00am 19.1 13.4 6.9 45 6.2 SSW 26 39 14 21 1019.3 1018.9 0.0
18/10:30am 17.0 12.3 9.2 60 4.1 SW 24 33 13 18 1019.6 1019.2 0.0
18/10:00am 16.7 10.3 8.4 58 4.2 SW 32 43 17 23 1019.4 1019.0 0.0
18/09:30am 18.2 12.6 7.3 49 5.5 SW 26 37 14 20 1019.0 1018.7 0.0
18/09:00am 17.3 12.9 7.6 53 4.9 SW 20 30 11 16 1018.8 1018.5 0.0
18/08:30am 16.3 12.1 7.5 56 4.4 SW 19 24 10 13 1018.5 1018.2 0.0
18/08:00am 15.3 11.7 8.5 64 3.5 SW 17 20 9 11 1018.3 1018.0 0.0
18/07:30am 15.0 11.2 8.9 67 3.1 SW 19 22 10 12 1018.0 1017.7 0.0
18/07:00am 14.8 10.7 10.2 74 2.4 SSW 22 30 12 16 1017.6 1017.3 0.0
18/06:30am 14.3 11.4 9.7 74 2.4 SW 15 20 8 11 1017.3 1016.9 0.0
18/06:00am 13.0 11.0 10.2 83 1.4 WSW 11 13 6 7 1017.1 1016.7 0.0
18/05:30am 12.3 10.0 9.0 80 1.7 W 11 13 6 7 1016.9 1016.5 0.0
18/05:00am 13.5 11.7 9.6 77 2.0 SW 9 13 5 7 1016.8 1016.4 0.0
18/04:30am 13.5 11.0 9.6 77 2.0 SSW 13 13 7 7 1017.0 1016.6 0.0
18/04:00am 13.9 11.3 9.3 74 2.4 SW 13 17 7 9 1017.0 1016.6 0.0
18/03:30am 14.6 12.1 9.6 72 2.6 WSW 13 17 7 9 1017.0 1016.6 0.0
18/03:00am 13.7 11.3 8.7 72 2.5 SW 11 15 6 8 1016.9 1016.5 0.0
18/02:30am 15.1 11.8 9.7 70 2.8 SSW 17 20 9 11 1017.2 1016.8 0.0
18/02:00am 13.7 10.9 10.1 79 1.9 WSW 15 17 8 9 1017.4 1017.0 0.0
18/01:30am 13.6 11.6 10.2 80 1.8 WSW 11 13 6 7 1017.7 1017.4 0.0
18/01:00am 13.9 11.9 10.1 78 2.0 WSW 11 13 6 7 1017.7 1017.4 0.0
18/12:30am 15.7 13.1 10.7 72 2.7 SSW 15 20 8 11 1017.7 1017.4 0.0
18/12:00am 16.3 12.3 10.6 69 3.0 SSW 22 28 12 15 1017.7 1017.4 0.0

Other Formats:

Comma delimited format used in spreadsheet applications
http://www.bom.gov.au/fwo/IDS60801/IDS60801.95654.axf

JavaScript Object Notation format (JSON) in row-major order
http://www.bom.gov.au/fwo/IDS60801/IDS60801.95654.json